Time;durP1;ratioP1;P1;durP2;ratioP2;P2;SDS_P1;SDS_P2;PMS_P1;PMS_P2;Temp;Humidity;BMP_temperature;BMP_pressure;BME280_temperature;BME280_humidity;BME280_pressure;Samples;Min_cycle;Max_cycle;Signal;HPM_P1;HPM_P2
2022/12/03 00:02:04;;;;;;;5.88;3.67;;;15.70;52.50;;;;;;5110329;27;45318;-78
2022/12/03 00:04:31;;;;;;;5.22;3.95;;;15.70;52.50;;;;;;5110741;27;45269;-78
2022/12/03 00:06:58;;;;;;;4.97;4.07;;;15.70;52.40;;;;;;5110962;27;45212;-78
2022/12/03 00:09:24;;;;;;;5.20;3.65;;;15.70;52.30;;;;;;5110553;27;47348;-78
2022/12/03 00:11:51;;;;;;;6.72;3.92;;;15.70;52.30;;;;;;5110711;27;45307;-79
2022/12/03 00:14:18;;;;;;;4.63;3.30;;;15.70;52.30;;;;;;5110402;27;45235;-78
2022/12/03 00:16:46;;;;;;;5.22;3.35;;;15.70;52.30;;;;;;5110708;27;45331;-78
2022/12/03 00:19:13;;;;;;;4.20;3.25;;;15.70;52.30;;;;;;5110215;27;45249;-78
2022/12/03 00:21:40;;;;;;;4.40;3.22;;;15.70;52.30;;;;;;5110133;27;45354;-79
2022/12/03 00:24:08;;;;;;;4.90;3.70;;;15.70;52.30;;;;;;5110216;27;45407;-78
2022/12/03 00:26:35;;;;;;;5.45;3.60;;;15.70;52.30;;;;;;5110454;27;45402;-78
2022/12/03 00:29:02;;;;;;;4.00;3.53;;;15.70;52.20;;;;;;5109957;27;45493;-78
2022/12/03 00:31:29;;;;;;;4.85;3.40;;;15.70;52.20;;;;;;5110058;27;45277;-78
2022/12/03 00:33:57;;;;;;;4.43;3.25;;;15.70;52.30;;;;;;5109895;27;45425;-78
2022/12/03 00:36:24;;;;;;;4.65;3.13;;;15.70;52.30;;;;;;5110589;27;45519;-78
2022/12/03 00:38:51;;;;;;;4.10;3.20;;;15.60;52.20;;;;;;5109770;27;47036;-79
2022/12/03 00:41:18;;;;;;;3.67;3.25;;;15.70;52.20;;;;;;5109186;27;45205;-78
2022/12/03 00:43:45;;;;;;;3.50;3.20;;;15.60;52.20;;;;;;5109907;27;45327;-78
2022/12/03 00:46:12;;;;;;;4.22;3.17;;;15.60;52.20;;;;;;5106564;27;45312;-78
2022/12/03 00:48:39;;;;;;;4.00;2.88;;;15.60;52.20;;;;;;5108534;27;46877;-78
2022/12/03 00:51:07;;;;;;;4.05;3.30;;;15.60;52.20;;;;;;5109544;27;45313;-78
2022/12/03 00:53:34;;;;;;;3.75;2.92;;;15.60;52.30;;;;;;5109448;27;45273;-77
2022/12/03 00:56:01;;;;;;;4.50;3.50;;;15.60;52.30;;;;;;5109997;27;45581;-78
2022/12/03 00:58:28;;;;;;;3.25;2.65;;;15.60;52.30;;;;;;5109283;27;46776;-78
2022/12/03 01:00:55;;;;;;;3.80;3.10;;;15.50;52.30;;;;;;5109633;27;45391;-78
2022/12/03 01:03:22;;;;;;;3.42;2.90;;;15.50;52.30;;;;;;5109829;27;45236;-78
2022/12/03 01:05:48;;;;;;;4.50;3.17;;;15.50;52.30;;;;;;5109649;27;45430;-78
2022/12/03 01:08:17;;;;;;;4.43;3.00;;;15.50;52.30;;;;;;5108501;27;46420;-78
2022/12/03 01:10:44;;;;;;;4.15;3.20;;;15.50;52.40;;;;;;5109409;27;45364;-78
2022/12/03 01:13:10;;;;;;;4.25;3.22;;;15.50;52.40;;;;;;5109368;27;45224;-77
2022/12/03 01:15:37;;;;;;;2.92;2.60;;;15.50;52.50;;;;;;5109427;27;45245;-78
2022/12/03 01:18:04;;;;;;;3.17;2.67;;;15.40;52.40;;;;;;5109257;27;45281;-78
2022/12/03 01:20:31;;;;;;;3.10;2.65;;;15.50;53.20;;;;;;5109315;27;45231;-77
2022/12/03 01:22:58;;;;;;;4.05;3.50;;;15.40;52.50;;;;;;5109229;27;45303;-78
2022/12/03 01:25:26;;;;;;;3.13;2.83;;;15.40;52.50;;;;;;5108857;27;45412;-78
2022/12/03 01:27:53;;;;;;;3.75;2.72;;;15.40;52.60;;;;;;5109173;27;45373;-78
2022/12/03 01:30:20;;;;;;;4.13;3.05;;;15.40;52.60;;;;;;5109111;27;45256;-78
2022/12/03 01:32:46;;;;;;;3.42;2.75;;;15.30;52.60;;;;;;5109189;27;45358;-79
2022/12/03 01:35:13;;;;;;;3.97;3.15;;;15.30;52.60;;;;;;5109194;27;45601;-78
2022/12/03 01:37:40;;;;;;;3.20;2.33;;;15.40;52.50;;;;;;5108809;27;48281;-78
2022/12/03 01:40:08;;;;;;;4.22;2.90;;;15.50;52.40;;;;;;5108995;27;45232;-77
2022/12/03 01:42:39;;;;;;;5.13;3.10;;;15.50;52.40;;;;;;5109030;27;45262;-78
2022/12/03 01:45:06;;;;;;;3.13;2.58;;;15.50;52.30;;;;;;5109423;27;45307;-78
2022/12/03 01:47:34;;;;;;;4.60;2.83;;;15.50;52.20;;;;;;5103761;27;45481;-78
2022/12/03 01:50:02;;;;;;;2.72;2.40;;;15.60;52.20;;;;;;5108618;27;45329;-78
2022/12/03 01:52:31;;;;;;;3.53;2.67;;;15.60;52.20;;;;;;5108506;27;45290;-77
2022/12/03 01:54:59;;;;;;;3.22;2.50;;;15.60;52.10;;;;;;5108956;27;45513;-78
2022/12/03 01:57:27;;;;;;;3.40;2.45;;;15.70;52.10;;;;;;5108735;27;45473;-78
2022/12/03 01:59:56;;;;;;;3.50;2.40;;;15.70;52.00;;;;;;5108697;27;45439;-78
2022/12/03 02:02:24;;;;;;;3.25;2.70;;;15.70;52.00;;;;;;5108646;27;45262;-78
2022/12/03 02:04:52;;;;;;;3.58;2.40;;;15.80;51.90;;;;;;5108635;27;45311;-78
2022/12/03 02:07:21;;;;;;;3.33;2.45;;;15.80;51.90;;;;;;5108279;27;45785;-78
2022/12/03 02:09:47;;;;;;;4.47;2.83;;;15.80;51.90;;;;;;5108741;27;45273;-77
2022/12/03 02:12:15;;;;;;;2.75;2.45;;;15.80;52.50;;;;;;5108135;27;45338;-78
2022/12/03 02:14:41;;;;;;;3.47;2.67;;;15.80;51.80;;;;;;5108475;27;45292;-78
2022/12/03 02:17:10;;;;;;;3.33;2.47;;;15.80;51.80;;;;;;5108378;27;45497;-78
2022/12/03 02:19:37;;;;;;;2.90;2.50;;;15.80;51.80;;;;;;5108065;27;45248;-78
2022/12/03 02:22:05;;;;;;;3.13;2.40;;;15.80;51.80;;;;;;5108454;27;45190;-78
2022/12/03 02:24:36;;;;;;;2.40;2.20;;;15.80;51.80;;;;;;5108575;27;45371;-78
2022/12/03 02:27:04;;;;;;;2.83;2.33;;;15.80;51.80;;;;;;5108313;27;46344;-78
2022/12/03 02:29:31;;;;;;;2.55;2.35;;;15.80;51.90;;;;;;5108115;27;45327;-78
2022/12/03 02:31:58;;;;;;;2.70;2.50;;;15.80;51.80;;;;;;5108386;27;45305;-78
2022/12/03 02:34:36;;;;;;;3.13;2.58;;;15.70;51.80;;;;;;5108486;27;45299;-78
2022/12/03 02:37:03;;;;;;;3.45;2.38;;;15.70;51.80;;;;;;5108196;27;45208;-78
2022/12/03 02:39:30;;;;;;;2.42;1.98;;;15.70;51.90;;;;;;5108054;27;45224;-78
2022/12/03 02:44:50;;;;;;;2.53;2.13;;;15.70;52.50;;;;;;5070447;27;45563;-78
2022/12/03 02:47:18;;;;;;;2.80;2.33;;;15.70;52.00;;;;;;5102641;27;46606;-79
2022/12/03 02:49:45;;;;;;;2.10;1.90;;;15.70;52.00;;;;;;5107687;27;45282;-78
2022/12/03 02:52:12;;;;;;;2.55;2.25;;;15.60;51.90;;;;;;5107833;27;45189;-78
2022/12/03 02:54:39;;;;;;;2.08;1.88;;;15.60;52.00;;;;;;5107754;27;45444;-78
2022/12/03 02:57:06;;;;;;;2.35;2.15;;;15.60;52.00;;;;;;5107642;27;45273;-78
2022/12/03 02:59:33;;;;;;;2.88;2.28;;;15.60;52.00;;;;;;5107491;27;45321;-79
2022/12/03 03:02:01;;;;;;;2.50;2.28;;;15.60;52.10;;;;;;5107877;27;45325;-78
2022/12/03 03:04:28;;;;;;;2.80;2.00;;;15.60;52.10;;;;;;5107687;27;45327;-78
2022/12/03 03:06:55;;;;;;;2.47;2.10;;;15.50;52.10;;;;;;5106615;27;46687;-78
2022/12/03 03:09:21;;;;;;;2.33;2.08;;;15.50;52.10;;;;;;5107142;27;45393;-78
2022/12/03 03:11:48;;;;;;;2.25;2.05;;;15.50;52.10;;;;;;5107868;27;45220;-78
2022/12/03 03:14:15;;;;;;;3.13;2.60;;;15.50;52.10;;;;;;5107307;27;45672;-78
2022/12/03 03:16:42;;;;;;;3.28;2.33;;;15.50;52.10;;;;;;5107417;27;45334;-78
2022/12/03 03:19:11;;;;;;;3.85;2.55;;;15.50;52.20;;;;;;5107360;27;45242;-79
2022/12/03 03:21:37;;;;;;;2.50;2.30;;;15.50;52.20;;;;;;5107400;27;45307;-78
2022/12/03 03:24:05;;;;;;;3.05;2.38;;;15.40;52.20;;;;;;5107424;27;45408;-78
2022/12/03 03:26:32;;;;;;;2.85;2.33;;;15.40;52.20;;;;;;5107302;27;45459;-78
2022/12/03 03:29:01;;;;;;;3.83;2.60;;;15.40;52.20;;;;;;5107402;27;45363;-78
2022/12/03 03:31:28;;;;;;;2.40;2.20;;;15.40;52.20;;;;;;5108614;27;45289;-78
2022/12/03 03:33:55;;;;;;;2.50;1.92;;;15.40;52.30;;;;;;5111195;27;45395;-79
2022/12/03 03:36:23;;;;;;;3.03;2.40;;;15.40;52.30;;;;;;5110889;27;46623;-78
2022/12/03 03:38:50;;;;;;;2.80;2.10;;;15.40;52.30;;;;;;5110821;27;45318;-78
2022/12/03 03:41:17;;;;;;;2.97;2.30;;;15.30;52.30;;;;;;5111061;27;45307;-78
2022/12/03 03:43:44;;;;;;;3.35;2.30;;;15.40;52.30;;;;;;5110942;27;45472;-78
2022/12/03 03:46:11;;;;;;;2.75;2.13;;;15.40;52.10;;;;;;5106979;27;47490;-78
2022/12/03 03:48:38;;;;;;;2.47;1.98;;;15.50;52.10;;;;;;5109632;27;45157;-77
2022/12/03 03:51:08;;;;;;;2.53;2.25;;;15.50;52.00;;;;;;5109873;27;45231;-78
2022/12/03 03:53:36;;;;;;;2.65;2.42;;;15.50;52.00;;;;;;5110215;27;45279;-78
2022/12/03 03:56:03;;;;;;;2.97;2.15;;;15.60;51.90;;;;;;5110254;27;45496;-78
2022/12/03 03:58:30;;;;;;;2.72;2.20;;;15.60;51.90;;;;;;5110711;27;45283;-78
2022/12/03 04:00:57;;;;;;;2.20;2.00;;;15.60;51.80;;;;;;5110420;27;45299;-78
2022/12/03 04:03:24;;;;;;;2.40;2.00;;;15.70;51.80;;;;;;5110823;27;45237;-78
2022/12/03 04:05:51;;;;;;;2.50;2.22;;;15.70;51.80;;;;;;5110411;27;46414;-78
2022/12/03 04:08:18;;;;;;;2.88;2.15;;;15.70;51.70;;;;;;5110324;27;45236;-78
2022/12/03 04:13:31;;;;;;;2.05;1.90;;;15.70;52.30;;;;;;5107786;27;45260;-77
2022/12/03 04:15:57;;;;;;;2.40;2.20;;;15.70;52.30;;;;;;5110244;27;46688;-77
2022/12/03 04:18:42;;;;;;;2.25;2.05;;;15.70;51.70;;;;;;5109903;27;45296;-78
2022/12/03 04:23:54;;;;;;;2.42;2.20;;;15.70;51.70;;;;;;5107641;27;45447;-78
2022/12/03 04:29:06;;;;;;;2.38;2.17;;;15.70;51.70;;;;;;5107494;27;45416;-78
2022/12/03 04:37:02;;;;;;;2.92;1.83;;;15.60;51.80;;;;;;5110253;27;45714;-77
2022/12/03 04:39:30;;;;;;;2.65;2.35;;;15.60;51.80;;;;;;5109535;27;45135;-78
2022/12/03 04:41:58;;;;;;;3.47;2.28;;;15.60;51.80;;;;;;5109630;27;45228;-78
2022/12/03 04:44:35;;;;;;;2.47;2.00;;;15.60;51.80;;;;;;5109020;27;45461;-78
2022/12/03 04:47:02;;;;;;;3.05;2.33;;;15.60;51.90;;;;;;5104515;27;46823;-77
2022/12/03 04:49:29;;;;;;;2.22;2.03;;;15.60;51.90;;;;;;5109743;27;45238;-77
2022/12/03 04:51:56;;;;;;;2.67;2.28;;;15.50;51.90;;;;;;5109552;27;45193;-77
2022/12/03 04:54:23;;;;;;;2.20;1.92;;;15.50;51.80;;;;;;5110031;27;45546;-78
2022/12/03 04:56:50;;;;;;;2.22;2.03;;;15.50;51.90;;;;;;5109531;27;46630;-78
2022/12/03 04:59:18;;;;;;;2.08;1.98;;;15.50;51.90;;;;;;5109471;27;45406;-78
2022/12/03 05:01:45;;;;;;;2.95;2.40;;;15.50;52.00;;;;;;5109480;27;45185;-78
2022/12/03 05:04:12;;;;;;;2.25;2.03;;;15.50;52.00;;;;;;5109492;27;45348;-77
2022/12/03 05:06:39;;;;;;;2.65;2.22;;;15.40;52.00;;;;;;5109339;27;46713;-77
2022/12/03 05:09:06;;;;;;;2.30;2.10;;;15.50;52.10;;;;;;5108717;27;45377;-77
2022/12/03 05:11:33;;;;;;;2.42;2.17;;;15.40;52.00;;;;;;5109165;27;45374;-78
2022/12/03 05:14:00;;;;;;;2.88;2.15;;;15.40;52.00;;;;;;5109966;27;45605;-77
2022/12/03 05:16:29;;;;;;;1.85;1.73;;;15.40;52.00;;;;;;5109049;27;45281;-78
2022/12/03 05:18:56;;;;;;;2.17;1.98;;;15.40;52.00;;;;;;5109012;27;45280;-78
2022/12/03 05:21:23;;;;;;;2.22;1.63;;;15.30;52.00;;;;;;5109468;27;45174;-77
2022/12/03 05:23:50;;;;;;;2.13;1.88;;;15.40;52.00;;;;;;5109280;27;45184;-78
2022/12/03 05:26:17;;;;;;;2.33;2.03;;;15.40;52.10;;;;;;5109188;27;46505;-78
2022/12/03 05:28:44;;;;;;;2.40;2.20;;;15.30;52.00;;;;;;5108980;27;45386;-77
2022/12/03 05:31:11;;;;;;;2.25;2.05;;;15.30;52.10;;;;;;5109326;27;45308;-78
2022/12/03 05:33:39;;;;;;;2.38;1.92;;;15.30;52.00;;;;;;5109183;27;45528;-78
2022/12/03 05:36:06;;;;;;;2.17;1.98;;;15.40;52.00;;;;;;5108705;27;45204;-78
2022/12/03 05:38:33;;;;;;;2.30;2.10;;;15.40;51.80;;;;;;5109021;27;45395;-77
2022/12/03 05:41:00;;;;;;;2.65;2.25;;;15.50;51.80;;;;;;5108853;27;45311;-77
2022/12/03 05:43:26;;;;;;;1.88;1.77;;;15.50;51.70;;;;;;5109176;27;45283;-77
2022/12/03 05:45:54;;;;;;;2.63;2.30;;;15.50;51.70;;;;;;5107726;27;46373;-77
2022/12/03 05:48:20;;;;;;;2.00;1.80;;;15.60;51.70;;;;;;5105034;27;45453;-78
2022/12/03 05:50:48;;;;;;;2.00;1.80;;;15.70;51.60;;;;;;5108619;27;45370;-79
2022/12/03 05:53:16;;;;;;;2.67;2.05;;;15.80;51.50;;;;;;5108298;27;45221;-77
2022/12/03 05:55:43;;;;;;;2.22;2.03;;;15.90;51.50;;;;;;5108014;27;45316;-77
2022/12/03 05:58:10;;;;;;;2.35;1.98;;;15.90;51.40;;;;;;5108608;27;45265;-77
2022/12/03 06:00:37;;;;;;;2.33;2.13;;;16.00;51.30;;;;;;5108638;27;45221;-77
2022/12/03 06:03:05;;;;;;;2.92;2.20;;;16.00;51.30;;;;;;5108997;27;45318;-77
2022/12/03 06:05:32;;;;;;;2.33;2.13;;;16.10;51.20;;;;;;5108268;27;47573;-77
2022/12/03 06:08:00;;;;;;;3.03;2.15;;;16.10;51.10;;;;;;5108504;27;45344;-77
2022/12/03 06:10:27;;;;;;;2.08;1.88;;;16.10;51.10;;;;;;5108427;27;45208;-78
2022/12/03 06:12:54;;;;;;;1.88;1.77;;;16.20;51.00;;;;;;5108738;27;45275;-78
2022/12/03 06:15:21;;;;;;;3.60;2.00;;;16.20;51.00;;;;;;5108190;27;46648;-78
2022/12/03 06:17:48;;;;;;;2.50;1.98;;;16.20;50.90;;;;;;5108158;27;45201;-77
2022/12/03 06:20:16;;;;;;;2.10;1.90;;;16.20;50.90;;;;;;5108475;27;45196;-77
2022/12/03 06:22:43;;;;;;;2.28;2.08;;;16.20;50.90;;;;;;5108708;27;45444;-78
2022/12/03 06:25:11;;;;;;;2.25;1.92;;;16.20;50.90;;;;;;5107921;27;46697;-77
2022/12/03 06:27:38;;;;;;;2.90;2.28;;;16.20;50.90;;;;;;5108190;27;45223;-78
2022/12/03 06:30:06;;;;;;;2.25;2.05;;;16.20;50.90;;;;;;5108331;27;45239;-76
2022/12/03 06:32:33;;;;;;;2.10;1.88;;;16.20;51.00;;;;;;5108525;27;45313;-76
2022/12/03 06:35:00;;;;;;;3.03;1.92;;;16.20;51.00;;;;;;5107552;27;46758;-75
2022/12/03 06:37:27;;;;;;;2.60;2.40;;;16.20;51.00;;;;;;5107482;27;45364;-77
2022/12/03 06:39:54;;;;;;;3.30;2.47;;;16.10;51.00;;;;;;5107981;27;45210;-77
2022/12/03 06:42:22;;;;;;;2.35;2.10;;;16.10;51.00;;;;;;5108174;27;45134;-76
2022/12/03 06:44:49;;;;;;;2.15;1.95;;;16.10;51.00;;;;;;5107776;27;45367;-76
2022/12/03 06:47:16;;;;;;;2.20;2.00;;;16.10;51.10;;;;;;5102781;27;45321;-77
2022/12/03 06:49:42;;;;;;;2.55;2.35;;;16.10;51.00;;;;;;5108112;27;45314;-76
2022/12/03 06:52:09;;;;;;;1.85;1.75;;;16.00;51.10;;;;;;5107795;27;45345;-76
2022/12/03 06:54:36;;;;;;;2.63;1.98;;;16.00;51.10;;;;;;5107847;27;45471;-77
2022/12/03 06:57:03;;;;;;;2.38;2.17;;;16.00;51.20;;;;;;5107428;27;45486;-77
2022/12/03 06:59:32;;;;;;;2.25;2.05;;;16.00;51.20;;;;;;5107850;27;45298;-76
2022/12/03 07:02:00;;;;;;;2.15;1.90;;;16.00;51.30;;;;;;5107756;27;45205;-76
2022/12/03 07:04:27;;;;;;;1.90;1.73;;;16.00;51.30;;;;;;5107342;27;45492;-77
2022/12/03 07:06:54;;;;;;;2.25;2.00;;;15.90;51.40;;;;;;5106351;27;45307;-76
2022/12/03 07:09:21;;;;;;;1.90;1.70;;;15.90;51.90;;;;;;5107599;27;45239;-76
2022/12/03 07:11:48;;;;;;;2.20;2.00;;;15.90;51.40;;;;;;5107630;27;45570;-76
2022/12/03 07:14:15;;;;;;;2.08;1.88;;;15.90;51.40;;;;;;5107074;27;46419;-77
2022/12/03 07:16:43;;;;;;;2.25;1.52;;;15.90;51.40;;;;;;5107424;27;45208;-77
2022/12/03 07:19:10;;;;;;;2.35;2.15;;;15.80;51.40;;;;;;5107113;27;45317;-76
2022/12/03 07:21:37;;;;;;;2.55;1.95;;;15.80;52.00;;;;;;5107122;27;45316;-76
2022/12/03 07:24:04;;;;;;;1.60;1.50;;;15.80;52.00;;;;;;5107048;27;45474;-76
2022/12/03 07:26:31;;;;;;;3.30;2.13;;;15.80;51.50;;;;;;5107289;27;45180;-76
2022/12/03 07:28:58;;;;;;;2.22;2.03;;;15.70;51.50;;;;;;5107782;27;45261;-77
2022/12/03 07:31:25;;;;;;;2.25;2.05;;;15.70;51.50;;;;;;5107693;27;45280;-77
2022/12/03 07:33:53;;;;;;;2.63;1.80;;;15.70;51.60;;;;;;5107056;27;45480;-76
2022/12/03 07:36:20;;;;;;;1.88;1.73;;;15.60;51.60;;;;;;5106991;27;45234;-76
2022/12/03 07:38:47;;;;;;;1.83;1.70;;;15.60;51.60;;;;;;5107183;27;45189;-76
2022/12/03 07:41:14;;;;;;;1.90;1.80;;;15.60;51.70;;;;;;5107545;27;45294;-77
2022/12/03 07:43:58;;;;;;;2.67;2.03;;;15.60;51.70;;;;;;5064392;27;45523;-76
2022/12/03 07:46:25;;;;;;;2.17;1.90;;;15.50;51.70;;;;;;5102386;27;45323;-76
2022/12/03 07:48:54;;;;;;;2.10;2.00;;;15.50;51.70;;;;;;5107325;27;45315;-77
2022/12/03 07:51:20;;;;;;;3.80;2.22;;;15.50;51.70;;;;;;5106808;27;45249;-76
2022/12/03 07:53:47;;;;;;;2.13;1.92;;;15.50;51.70;;;;;;5106784;27;45410;-76
2022/12/03 07:56:14;;;;;;;2.25;1.98;;;15.50;51.80;;;;;;5106911;27;45345;-76
2022/12/03 07:58:41;;;;;;;2.20;1.70;;;15.40;51.80;;;;;;5107014;27;45232;-76
2022/12/03 08:01:09;;;;;;;1.98;1.80;;;15.50;51.80;;;;;;5106933;27;45300;-76
2022/12/03 08:03:35;;;;;;;2.65;2.20;;;15.40;51.80;;;;;;5106775;27;45634;-76
2022/12/03 08:06:04;;;;;;;2.75;2.00;;;15.40;51.80;;;;;;5106676;27;45191;-76
2022/12/03 08:08:31;;;;;;;2.88;2.00;;;15.40;51.80;;;;;;5106189;27;45293;-76
2022/12/03 08:10:58;;;;;;;2.22;2.03;;;15.40;51.90;;;;;;5106894;27;45415;-77
2022/12/03 08:13:24;;;;;;;2.42;2.22;;;15.40;51.90;;;;;;5106799;27;47015;-76
2022/12/03 08:15:51;;;;;;;2.17;1.92;;;15.30;52.50;;;;;;5106749;27;45237;-77
2022/12/03 08:18:20;;;;;;;2.20;2.00;;;15.30;51.80;;;;;;5109441;27;45196;-77
2022/12/03 08:20:48;;;;;;;3.03;2.05;;;15.30;51.90;;;;;;5110244;27;45315;-76
2022/12/03 08:23:17;;;;;;;2.33;2.00;;;15.30;51.80;;;;;;5110146;27;45306;-77
2022/12/03 08:25:44;;;;;;;2.00;1.80;;;15.30;51.90;;;;;;5109957;27;45374;-77
2022/12/03 08:28:15;;;;;;;2.08;1.88;;;15.30;51.90;;;;;;5109971;27;45501;-76
2022/12/03 08:30:42;;;;;;;2.03;1.85;;;15.40;51.70;;;;;;5110507;27;45186;-77
2022/12/03 08:33:18;;;;;;;2.20;2.00;;;15.40;51.60;;;;;;5109637;27;45440;-77
2022/12/03 08:35:48;;;;;;;2.40;1.80;;;15.50;51.50;;;;;;5109683;27;45327;-76
2022/12/03 08:38:16;;;;;;;2.33;1.95;;;15.50;51.50;;;;;;5109848;27;45194;-77
2022/12/03 08:40:45;;;;;;;2.70;2.08;;;15.60;51.50;;;;;;5110019;27;45240;-77
2022/12/03 08:43:14;;;;;;;2.33;2.08;;;15.60;51.40;;;;;;5109816;27;45402;-77
2022/12/03 08:45:41;;;;;;;2.42;1.90;;;15.70;51.30;;;;;;5109603;27;45272;-77
2022/12/03 08:48:27;;;;;;;2.10;1.90;;;15.70;51.30;;;;;;5104991;27;45217;-77
2022/12/03 08:50:54;;;;;;;2.08;1.88;;;15.70;51.20;;;;;;5108354;27;45497;-77
2022/12/03 08:53:33;;;;;;;2.13;1.85;;;15.80;51.20;;;;;;5109580;27;46362;-76
2022/12/03 08:56:01;;;;;;;2.83;1.90;;;15.80;51.10;;;;;;5109769;27;45263;-76
2022/12/03 08:58:33;;;;;;;2.63;2.00;;;15.80;51.10;;;;;;5109994;27;45264;-77
2022/12/03 09:01:02;;;;;;;2.33;1.90;;;15.80;51.70;;;;;;5109756;27;45510;-75
2022/12/03 09:03:30;;;;;;;2.50;2.03;;;15.90;51.10;;;;;;5108831;27;46671;-75
2022/12/03 09:05:57;;;;;;;2.15;1.95;;;15.90;51.10;;;;;;5109451;27;45308;-75
2022/12/03 09:08:24;;;;;;;1.70;1.60;;;15.90;51.10;;;;;;5109234;27;45295;-76
2022/12/03 09:10:52;;;;;;;3.30;2.22;;;15.90;51.10;;;;;;5109047;27;45193;-76
2022/12/03 09:13:19;;;;;;;2.20;2.00;;;15.90;51.70;;;;;;5109173;27;46844;-76
2022/12/03 09:15:46;;;;;;;2.53;2.08;;;15.90;51.10;;;;;;5109366;27;45306;-76
2022/12/03 09:18:14;;;;;;;2.33;2.10;;;15.80;51.00;;;;;;5109423;27;45333;-76
2022/12/03 09:20:41;;;;;;;2.15;1.85;;;15.80;51.00;;;;;;5109253;27;45434;-76
2022/12/03 09:23:07;;;;;;;1.90;1.70;;;15.80;51.00;;;;;;5109119;27;45365;-76
2022/12/03 09:25:34;;;;;;;1.90;1.70;;;15.80;51.60;;;;;;5109241;27;45504;-76
2022/12/03 09:28:03;;;;;;;2.33;1.83;;;15.80;51.00;;;;;;5109679;27;45446;-76
2022/12/03 09:30:30;;;;;;;2.00;1.75;;;15.80;51.00;;;;;;5108707;27;45169;-76
2022/12/03 09:32:58;;;;;;;2.00;1.70;;;15.80;51.10;;;;;;5108990;27;46657;-76
2022/12/03 09:35:25;;;;;;;2.20;2.05;;;15.80;51.10;;;;;;5108707;27;45339;-77
2022/12/03 09:37:52;;;;;;;1.92;1.83;;;15.80;51.20;;;;;;5109048;27;45238;-76
2022/12/03 09:40:19;;;;;;;2.10;1.90;;;15.70;51.10;;;;;;5109334;27;45280;-76
2022/12/03 09:42:46;;;;;;;1.90;1.80;;;15.70;51.20;;;;;;5108640;27;46765;-76
2022/12/03 09:45:15;;;;;;;1.90;1.70;;;15.70;51.20;;;;;;5108845;27;45236;-76
2022/12/03 09:47:43;;;;;;;2.08;1.80;;;15.70;51.20;;;;;;5103965;27;45296;-76
2022/12/03 09:50:12;;;;;;;2.05;1.85;;;15.70;51.20;;;;;;5108882;27;45236;-76
2022/12/03 09:52:39;;;;;;;1.67;1.58;;;15.70;51.30;;;;;;5108266;27;46733;-76
2022/12/03 09:55:11;;;;;;;2.22;1.90;;;15.60;51.30;;;;;;5107704;27;45301;-76
2022/12/03 09:57:38;;;;;;;2.42;1.50;;;15.60;51.30;;;;;;5108200;27;45180;-76
2022/12/03 10:00:11;;;;;;;2.13;1.70;;;15.60;51.30;;;;;;5109131;27;45343;-76
2022/12/03 10:02:39;;;;;;;1.73;1.63;;;15.60;51.40;;;;;;5108510;27;46666;-76
2022/12/03 10:05:06;;;;;;;1.50;1.40;;;15.60;51.50;;;;;;5108304;27;45348;-76
2022/12/03 10:07:33;;;;;;;1.58;1.48;;;15.50;51.50;;;;;;5108415;27;45233;-76
2022/12/03 10:10:00;;;;;;;1.85;1.70;;;15.50;51.50;;;;;;5108756;27;45181;-76
2022/12/03 10:12:27;;;;;;;2.42;1.92;;;15.50;51.50;;;;;;5108418;27;46694;-76
2022/12/03 10:14:54;;;;;;;2.08;1.88;;;15.50;51.50;;;;;;5108446;27;45214;-76
2022/12/03 10:17:20;;;;;;;1.98;1.88;;;15.50;51.60;;;;;;5108503;27;45332;-76
2022/12/03 10:19:49;;;;;;;1.98;1.70;;;15.50;52.30;;;;;;5108379;27;45291;-76
2022/12/03 10:22:15;;;;;;;1.80;1.60;;;15.40;51.60;;;;;;5108318;27;45216;-76
2022/12/03 10:24:43;;;;;;;2.80;1.67;;;15.50;51.70;;;;;;5108208;27;45253;-76
2022/12/03 10:27:21;;;;;;;1.58;1.48;;;15.40;51.70;;;;;;5108321;27;45322;-76
2022/12/03 10:29:53;;;;;;;2.05;1.85;;;15.40;51.70;;;;;;5108415;27;45290;-76
2022/12/03 10:32:24;;;;;;;1.75;1.50;;;15.40;51.80;;;;;;5107968;27;45447;-76
2022/12/03 10:34:54;;;;;;;1.65;1.55;;;15.40;51.70;;;;;;5108066;27;45188;-76
2022/12/03 10:37:21;;;;;;;2.42;1.83;;;15.40;51.70;;;;;;5108116;27;45260;-76
2022/12/03 10:39:56;;;;;;;1.70;1.60;;;15.30;51.70;;;;;;5108009;27;45443;-77
2022/12/03 10:42:23;;;;;;;1.80;1.70;;;15.30;51.80;;;;;;5108217;27;45353;-76
2022/12/03 10:44:52;;;;;;;2.08;1.90;;;15.30;51.70;;;;;;5107957;27;45299;-76
2022/12/03 10:47:23;;;;;;;2.63;1.75;;;15.30;51.80;;;;;;5102870;27;45394;-76
2022/12/03 10:50:03;;;;;;;2.08;1.88;;;15.30;51.80;;;;;;5108026;27;45293;-75
2022/12/03 10:52:30;;;;;;;1.50;1.40;;;15.30;51.70;;;;;;5107382;27;46469;-76
2022/12/03 10:54:57;;;;;;;2.20;1.95;;;15.40;51.70;;;;;;5106839;27;45371;-76
2022/12/03 10:57:23;;;;;;;9.40;2.28;;;15.40;51.50;;;;;;5107868;27;45315;-77
2022/12/03 10:59:50;;;;;;;7.28;2.00;;;15.50;51.60;;;;;;5108177;27;45378;-79
2022/12/03 11:02:19;;;;;;;3.83;2.10;;;15.60;52.60;;;;;;5108218;27;46732;-79
2022/12/03 11:04:46;;;;;;;5.88;2.38;;;15.80;51.20;;;;;;5109049;27;45376;-76
2022/12/03 11:07:15;;;;;;;3.35;2.35;;;15.90;51.50;;;;;;5108242;27;45335;-76
2022/12/03 11:09:43;;;;;;;3.40;2.30;;;15.90;51.30;;;;;;5108468;27;45180;-76
2022/12/03 11:12:17;;;;;;;4.85;2.15;;;16.00;51.30;;;;;;5108737;27;46348;-76
2022/12/03 11:15:06;;;;;;;2.88;2.55;;;16.00;51.10;;;;;;5108036;27;45291;-76
2022/12/03 11:17:44;;;;;;;2.83;1.90;;;16.00;51.00;;;;;;5108564;27;45307;-76
2022/12/03 11:20:13;;;;;;;2.20;1.92;;;16.10;51.00;;;;;;5108515;27;45438;-77
2022/12/03 11:22:42;;;;;;;1.77;1.63;;;16.10;50.80;;;;;;5107333;27;45200;-77
2022/12/03 11:25:49;;;;;;;2.40;2.15;;;16.10;50.80;;;;;;5106956;27;45392;-76
2022/12/03 11:28:39;;;;;;;2.28;1.77;;;16.10;50.70;;;;;;5107559;27;45193;-78
2022/12/03 11:31:11;;;;;;;4.95;1.95;;;16.10;50.70;;;;;;5107345;27;45233;-77
2022/12/03 11:33:39;;;;;;;3.22;1.80;;;16.10;51.30;;;;;;5106947;27;46562;-77
2022/12/03 11:36:16;;;;;;;2.55;2.05;;;16.10;50.70;;;;;;5108685;27;45248;-77
2022/12/03 11:38:49;;;;;;;2.13;1.92;;;16.10;50.70;;;;;;5107590;27;45351;-74
2022/12/03 11:41:16;;;;;;;2.55;2.10;;;16.10;50.70;;;;;;5108499;27;45255;-78
2022/12/03 11:44:31;;;;;;;2.08;1.83;;;16.10;50.70;;;;;;5109918;27;46769;-79
2022/12/03 11:46:59;;;;;;;2.72;2.03;;;16.10;50.70;;;;;;5106280;27;45532;-76
2022/12/03 11:49:37;;;;;;;2.45;2.15;;;16.10;50.70;;;;;;5106616;27;45250;-76
2022/12/03 11:52:18;;;;;;;2.58;2.28;;;16.10;50.80;;;;;;5108292;27;45258;-77
2022/12/03 11:54:46;;;;;;;2.58;2.03;;;16.00;50.80;;;;;;5110822;27;45402;-78
2022/12/03 11:57:25;;;;;;;2.50;2.00;;;16.00;50.80;;;;;;5110238;27;45214;-77
2022/12/03 12:00:03;;;;;;;2.53;2.15;;;16.00;50.90;;;;;;5112259;27;45367;-76
2022/12/03 12:02:30;;;;;;;2.50;2.05;;;16.00;50.90;;;;;;5111268;27;45276;-77
2022/12/03 12:04:57;;;;;;;1.90;1.70;;;16.00;50.90;;;;;;5110080;27;45312;-77
2022/12/03 12:07:36;;;;;;;2.30;1.90;;;16.00;50.90;;;;;;5110321;27;45215;-77
2022/12/03 12:10:05;;;;;;;2.33;1.98;;;15.90;50.90;;;;;;5110362;27;45298;-77
2022/12/03 12:12:36;;;;;;;2.45;2.25;;;15.90;50.90;;;;;;5110545;27;45208;-76
2022/12/03 12:15:33;;;;;;;3.13;2.30;;;15.90;50.90;;;;;;5110744;27;45496;-78
2022/12/03 12:18:30;;;;;;;2.20;2.00;;;15.90;51.00;;;;;;5081078;28;45300;-78
2022/12/03 12:21:05;;;;;;;2.83;2.15;;;15.90;51.00;;;;;;5065733;28;45517;-74
2022/12/03 12:23:32;;;;;;;6.97;2.45;;;15.90;51.10;;;;;;5065182;28;45278;-75
2022/12/03 12:26:07;;;;;;;3.05;2.10;;;15.80;51.10;;;;;;5068805;28;45451;-78
2022/12/03 12:28:34;;;;;;;3.08;2.40;;;15.80;51.20;;;;;;5068833;28;45335;-79
2022/12/03 12:31:01;;;;;;;3.30;2.50;;;15.80;51.20;;;;;;5077598;28;45297;-73
2022/12/03 12:33:28;;;;;;;5.30;2.42;;;15.80;51.20;;;;;;5087615;28;45289;-72
2022/12/03 12:35:54;;;;;;;2.90;2.50;;;15.80;51.20;;;;;;5074775;28;46705;-79
2022/12/03 12:38:23;;;;;;;3.17;2.70;;;15.80;51.30;;;;;;5086810;28;45409;-77
2022/12/03 12:40:50;;;;;;;2.90;2.30;;;15.70;51.20;;;;;;5069246;28;45459;-75
2022/12/03 12:43:23;;;;;;;4.78;2.47;;;15.70;51.30;;;;;;5075543;28;45551;-76
2022/12/03 12:45:50;;;;;;;3.67;2.40;;;15.70;51.60;;;;;;5079365;27;46609;-75
2022/12/03 12:48:23;;;;;;;3.80;2.70;;;15.70;51.90;;;;;;5084995;27;45766;-74
2022/12/03 12:50:52;;;;;;;6.28;3.25;;;15.70;52.10;;;;;;5075710;28;45399;-76
2022/12/03 12:53:21;;;;;;;5.28;3.00;;;15.80;52.10;;;;;;5083291;27;45291;-69
2022/12/03 12:55:48;;;;;;;5.03;3.50;;;15.80;51.70;;;;;;5078006;27;45586;-70
2022/12/03 12:58:17;;;;;;;4.30;3.28;;;15.80;51.40;;;;;;5083155;28;45927;-73
2022/12/03 13:00:45;;;;;;;5.55;3.17;;;15.80;51.60;;;;;;5081305;28;45411;-74
2022/12/03 13:03:12;;;;;;;4.97;3.20;;;15.80;51.80;;;;;;5077740;28;45654;-74
2022/12/03 13:05:40;;;;;;;7.28;3.30;;;15.80;51.60;;;;;;5079811;28;46694;-72
2022/12/03 13:08:18;;;;;;;9.15;3.88;;;15.90;51.90;;;;;;5078934;28;45467;-72
2022/12/03 13:10:45;;;;;;;5.65;3.58;;;15.90;51.70;;;;;;5081834;28;45541;-76
2022/12/03 13:13:18;;;;;;;5.72;3.75;;;15.90;51.60;;;;;;5080953;28;45531;-74